sensor_id;sensor_type;location;lat;lon;timestamp;P1;durP1;ratioP1;P2;durP2;ratioP2
37903;SDS011;23738;50.422;18.758;2023-05-19T00:00:40;4.60;;;2.80;;
37903;SDS011;23738;50.422;18.758;2023-05-19T00:03:09;5.60;;;2.90;;
37903;SDS011;23738;50.422;18.758;2023-05-19T00:06:22;3.20;;;2.00;;
37903;SDS011;23738;50.422;18.758;2023-05-19T00:08:53;3.90;;;2.30;;
37903;SDS011;23738;50.422;18.758;2023-05-19T00:11:24;4.10;;;2.50;;
37903;SDS011;23738;50.422;18.758;2023-05-19T00:13:53;5.10;;;2.40;;
37903;SDS011;23738;50.422;18.758;2023-05-19T00:16:22;3.80;;;2.50;;
37903;SDS011;23738;50.422;18.758;2023-05-19T00:18:52;6.50;;;4.70;;
37903;SDS011;23738;50.422;18.758;2023-05-19T00:21:21;10.90;;;7.90;;
37903;SDS011;23738;50.422;18.758;2023-05-19T00:23:49;12.10;;;6.90;;
37903;SDS011;23738;50.422;18.758;2023-05-19T00:26:16;7.30;;;3.50;;
37903;SDS011;23738;50.422;18.758;2023-05-19T00:28:46;5.40;;;2.80;;
37903;SDS011;23738;50.422;18.758;2023-05-19T00:32:13;4.70;;;2.10;;
37903;SDS011;23738;50.422;18.758;2023-05-19T00:34:41;3.50;;;2.10;;
37903;SDS011;23738;50.422;18.758;2023-05-19T00:37:13;4.80;;;2.40;;
37903;SDS011;23738;50.422;18.758;2023-05-19T00:39:41;3.90;;;2.40;;
37903;SDS011;23738;50.422;18.758;2023-05-19T00:42:08;3.80;;;2.50;;
37903;SDS011;23738;50.422;18.758;2023-05-19T00:45:15;4.10;;;1.80;;
37903;SDS011;23738;50.422;18.758;2023-05-19T00:48:03;6.60;;;2.20;;
37903;SDS011;23738;50.422;18.758;2023-05-19T00:50:30;4.70;;;2.10;;
37903;SDS011;23738;50.422;18.758;2023-05-19T00:53:19;4.00;;;2.00;;
37903;SDS011;23738;50.422;18.758;2023-05-19T00:56:28;4.00;;;2.40;;
37903;SDS011;23738;50.422;18.758;2023-05-19T00:59:18;4.50;;;2.30;;
37903;SDS011;23738;50.422;18.758;2023-05-19T01:01:45;3.70;;;2.50;;
37903;SDS011;23738;50.422;18.758;2023-05-19T01:04:14;4.50;;;2.20;;
37903;SDS011;23738;50.422;18.758;2023-05-19T01:06:42;3.00;;;1.80;;
37903;SDS011;23738;50.422;18.758;2023-05-19T01:09:30;3.30;;;2.00;;
37903;SDS011;23738;50.422;18.758;2023-05-19T01:12:18;4.90;;;2.30;;
37903;SDS011;23738;50.422;18.758;2023-05-19T01:15:06;4.00;;;2.40;;
37903;SDS011;23738;50.422;18.758;2023-05-19T01:18:46;5.10;;;2.10;;
37903;SDS011;23738;50.422;18.758;2023-05-19T01:28:41;4.20;;;1.90;;
37903;SDS011;23738;50.422;18.758;2023-05-19T01:33:53;3.20;;;2.70;;
37903;SDS011;23738;50.422;18.758;2023-05-19T01:36:22;2.90;;;2.10;;
37903;SDS011;23738;50.422;18.758;2023-05-19T01:39:09;4.00;;;2.50;;
37903;SDS011;23738;50.422;18.758;2023-05-19T01:53:38;2.80;;;1.90;;
37903;SDS011;23738;50.422;18.758;2023-05-19T01:56:06;2.80;;;1.90;;
37903;SDS011;23738;50.422;18.758;2023-05-19T01:58:37;3.10;;;1.70;;
37903;SDS011;23738;50.422;18.758;2023-05-19T02:01:10;3.50;;;1.90;;
37903;SDS011;23738;50.422;18.758;2023-05-19T02:03:55;2.80;;;1.90;;
37903;SDS011;23738;50.422;18.758;2023-05-19T02:06:35;3.90;;;1.90;;
37903;SDS011;23738;50.422;18.758;2023-05-19T02:09:09;3.20;;;2.00;;
37903;SDS011;23738;50.422;18.758;2023-05-19T02:11:40;3.10;;;2.20;;
37903;SDS011;23738;50.422;18.758;2023-05-19T02:14:14;5.20;;;2.30;;
37903;SDS011;23738;50.422;18.758;2023-05-19T02:16:46;4.10;;;2.30;;
37903;SDS011;23738;50.422;18.758;2023-05-19T02:19:21;7.30;;;2.10;;
37903;SDS011;23738;50.422;18.758;2023-05-19T02:21:50;4.00;;;2.40;;
37903;SDS011;23738;50.422;18.758;2023-05-19T02:24:17;5.00;;;2.10;;
37903;SDS011;23738;50.422;18.758;2023-05-19T02:26:44;10.30;;;4.20;;
37903;SDS011;23738;50.422;18.758;2023-05-19T02:29:13;4.00;;;2.90;;
37903;SDS011;23738;50.422;18.758;2023-05-19T02:31:41;4.80;;;2.90;;
37903;SDS011;23738;50.422;18.758;2023-05-19T02:34:08;4.20;;;2.90;;
37903;SDS011;23738;50.422;18.758;2023-05-19T02:36:35;5.90;;;2.70;;
37903;SDS011;23738;50.422;18.758;2023-05-19T02:39:03;4.20;;;2.50;;
37903;SDS011;23738;50.422;18.758;2023-05-19T02:41:30;3.80;;;2.20;;
37903;SDS011;23738;50.422;18.758;2023-05-19T02:43:58;6.80;;;2.30;;
37903;SDS011;23738;50.422;18.758;2023-05-19T02:46:25;6.80;;;2.20;;
37903;SDS011;23738;50.422;18.758;2023-05-19T02:48:52;5.00;;;2.10;;
37903;SDS011;23738;50.422;18.758;2023-05-19T02:51:19;4.00;;;2.30;;
37903;SDS011;23738;50.422;18.758;2023-05-19T02:53:46;4.00;;;2.30;;
37903;SDS011;23738;50.422;18.758;2023-05-19T02:56:14;5.00;;;2.40;;
37903;SDS011;23738;50.422;18.758;2023-05-19T02:58:41;3.60;;;2.30;;
37903;SDS011;23738;50.422;18.758;2023-05-19T03:01:09;4.40;;;2.50;;
37903;SDS011;23738;50.422;18.758;2023-05-19T03:03:36;9.80;;;2.70;;
37903;SDS011;23738;50.422;18.758;2023-05-19T03:06:04;5.80;;;2.90;;
37903;SDS011;23738;50.422;18.758;2023-05-19T03:08:33;5.90;;;3.30;;
37903;SDS011;23738;50.422;18.758;2023-05-19T03:11:01;5.60;;;3.70;;
37903;SDS011;23738;50.422;18.758;2023-05-19T03:13:28;8.80;;;3.20;;
37903;SDS011;23738;50.422;18.758;2023-05-19T03:15:55;6.90;;;4.40;;
37903;SDS011;23738;50.422;18.758;2023-05-19T03:18:24;7.30;;;3.60;;
37903;SDS011;23738;50.422;18.758;2023-05-19T03:20:51;6.60;;;3.20;;
37903;SDS011;23738;50.422;18.758;2023-05-19T03:23:19;5.10;;;3.20;;
37903;SDS011;23738;50.422;18.758;2023-05-19T03:25:47;7.50;;;3.50;;
37903;SDS011;23738;50.422;18.758;2023-05-19T03:28:14;6.40;;;3.90;;
37903;SDS011;23738;50.422;18.758;2023-05-19T03:30:42;7.60;;;4.00;;
37903;SDS011;23738;50.422;18.758;2023-05-19T03:33:09;6.50;;;3.70;;
37903;SDS011;23738;50.422;18.758;2023-05-19T03:35:36;6.10;;;3.30;;
37903;SDS011;23738;50.422;18.758;2023-05-19T03:38:03;6.60;;;3.00;;
37903;SDS011;23738;50.422;18.758;2023-05-19T03:40:30;5.80;;;3.10;;
37903;SDS011;23738;50.422;18.758;2023-05-19T03:42:57;4.70;;;2.90;;
37903;SDS011;23738;50.422;18.758;2023-05-19T03:45:25;2.70;;;2.20;;
37903;SDS011;23738;50.422;18.758;2023-05-19T03:47:53;4.10;;;3.10;;
37903;SDS011;23738;50.422;18.758;2023-05-19T03:50:20;5.00;;;3.30;;
37903;SDS011;23738;50.422;18.758;2023-05-19T03:52:47;8.20;;;3.30;;
37903;SDS011;23738;50.422;18.758;2023-05-19T03:55:14;6.90;;;2.90;;
37903;SDS011;23738;50.422;18.758;2023-05-19T03:57:45;4.90;;;2.80;;
37903;SDS011;23738;50.422;18.758;2023-05-19T04:00:13;5.20;;;3.50;;
37903;SDS011;23738;50.422;18.758;2023-05-19T04:02:41;7.60;;;3.30;;
37903;SDS011;23738;50.422;18.758;2023-05-19T04:05:08;6.30;;;3.00;;
37903;SDS011;23738;50.422;18.758;2023-05-19T04:07:36;7.20;;;3.70;;
37903;SDS011;23738;50.422;18.758;2023-05-19T04:10:04;6.10;;;3.40;;
37903;SDS011;23738;50.422;18.758;2023-05-19T04:12:33;8.90;;;3.40;;
37903;SDS011;23738;50.422;18.758;2023-05-19T04:15:00;5.10;;;3.00;;
37903;SDS011;23738;50.422;18.758;2023-05-19T04:17:27;6.30;;;2.80;;
37903;SDS011;23738;50.422;18.758;2023-05-19T04:19:54;4.70;;;2.90;;
37903;SDS011;23738;50.422;18.758;2023-05-19T04:22:21;5.30;;;3.20;;
37903;SDS011;23738;50.422;18.758;2023-05-19T04:24:48;6.40;;;4.70;;
37903;SDS011;23738;50.422;18.758;2023-05-19T04:27:17;9.10;;;3.50;;
37903;SDS011;23738;50.422;18.758;2023-05-19T04:29:46;4.40;;;3.20;;
37903;SDS011;23738;50.422;18.758;2023-05-19T04:32:14;7.10;;;3.00;;
37903;SDS011;23738;50.422;18.758;2023-05-19T04:34:42;5.60;;;3.00;;
37903;SDS011;23738;50.422;18.758;2023-05-19T04:37:11;3.80;;;2.80;;
37903;SDS011;23738;50.422;18.758;2023-05-19T04:39:40;3.40;;;2.50;;
37903;SDS011;23738;50.422;18.758;2023-05-19T04:42:10;4.40;;;3.10;;
37903;SDS011;23738;50.422;18.758;2023-05-19T04:44:38;5.50;;;3.40;;
37903;SDS011;23738;50.422;18.758;2023-05-19T04:47:05;5.60;;;3.50;;
37903;SDS011;23738;50.422;18.758;2023-05-19T04:49:33;8.50;;;2.90;;
37903;SDS011;23738;50.422;18.758;2023-05-19T04:52:05;3.70;;;2.50;;
37903;SDS011;23738;50.422;18.758;2023-05-19T04:54:35;4.30;;;2.70;;
37903;SDS011;23738;50.422;18.758;2023-05-19T04:57:03;4.50;;;2.90;;
37903;SDS011;23738;50.422;18.758;2023-05-19T04:59:31;5.90;;;3.50;;
37903;SDS011;23738;50.422;18.758;2023-05-19T05:01:59;5.60;;;3.50;;
37903;SDS011;23738;50.422;18.758;2023-05-19T05:04:26;5.30;;;3.50;;
37903;SDS011;23738;50.422;18.758;2023-05-19T05:06:53;5.70;;;2.60;;
37903;SDS011;23738;50.422;18.758;2023-05-19T05:09:20;5.30;;;2.60;;
37903;SDS011;23738;50.422;18.758;2023-05-19T05:11:48;4.50;;;3.10;;
37903;SDS011;23738;50.422;18.758;2023-05-19T05:14:16;5.90;;;2.70;;
37903;SDS011;23738;50.422;18.758;2023-05-19T05:16:45;5.40;;;3.20;;
37903;SDS011;23738;50.422;18.758;2023-05-19T05:19:13;5.30;;;3.20;;
37903;SDS011;23738;50.422;18.758;2023-05-19T05:21:42;4.20;;;2.80;;
37903;SDS011;23738;50.422;18.758;2023-05-19T05:24:11;4.20;;;2.80;;
37903;SDS011;23738;50.422;18.758;2023-05-19T05:26:41;5.70;;;3.00;;
37903;SDS011;23738;50.422;18.758;2023-05-19T05:29:09;6.60;;;3.30;;
37903;SDS011;23738;50.422;18.758;2023-05-19T05:31:36;6.60;;;3.20;;
37903;SDS011;23738;50.422;18.758;2023-05-19T05:34:03;4.20;;;2.90;;
37903;SDS011;23738;50.422;18.758;2023-05-19T05:36:30;4.30;;;3.60;;
37903;SDS011;23738;50.422;18.758;2023-05-19T05:38:59;3.60;;;3.30;;
37903;SDS011;23738;50.422;18.758;2023-05-19T05:41:27;6.30;;;3.30;;
37903;SDS011;23738;50.422;18.758;2023-05-19T05:43:59;4.50;;;3.00;;
37903;SDS011;23738;50.422;18.758;2023-05-19T05:46:27;11.40;;;3.40;;
37903;SDS011;23738;50.422;18.758;2023-05-19T05:48:54;4.60;;;3.30;;
37903;SDS011;23738;50.422;18.758;2023-05-19T05:51:23;7.00;;;3.60;;
37903;SDS011;23738;50.422;18.758;2023-05-19T05:53:51;6.90;;;3.30;;
37903;SDS011;23738;50.422;18.758;2023-05-19T05:56:21;9.90;;;5.20;;
37903;SDS011;23738;50.422;18.758;2023-05-19T05:58:49;4.70;;;2.90;;
37903;SDS011;23738;50.422;18.758;2023-05-19T06:01:16;3.90;;;3.10;;
37903;SDS011;23738;50.422;18.758;2023-05-19T06:03:43;5.10;;;3.60;;
37903;SDS011;23738;50.422;18.758;2023-05-19T06:06:11;4.90;;;3.50;;
37903;SDS011;23738;50.422;18.758;2023-05-19T06:08:39;8.90;;;3.50;;
37903;SDS011;23738;50.422;18.758;2023-05-19T06:11:06;4.80;;;4.30;;
37903;SDS011;23738;50.422;18.758;2023-05-19T06:13:34;6.60;;;3.70;;
37903;SDS011;23738;50.422;18.758;2023-05-19T06:16:01;5.50;;;3.50;;
37903;SDS011;23738;50.422;18.758;2023-05-19T06:18:29;7.80;;;4.10;;
37903;SDS011;23738;50.422;18.758;2023-05-19T06:20:57;5.80;;;3.80;;
37903;SDS011;23738;50.422;18.758;2023-05-19T06:23:24;7.00;;;3.40;;
37903;SDS011;23738;50.422;18.758;2023-05-19T06:25:53;12.20;;;10.10;;
37903;SDS011;23738;50.422;18.758;2023-05-19T06:28:21;7.50;;;4.60;;
37903;SDS011;23738;50.422;18.758;2023-05-19T06:30:48;9.50;;;4.20;;
37903;SDS011;23738;50.422;18.758;2023-05-19T06:33:15;8.80;;;4.20;;
37903;SDS011;23738;50.422;18.758;2023-05-19T06:35:42;5.80;;;3.90;;
37903;SDS011;23738;50.422;18.758;2023-05-19T06:38:10;6.20;;;4.80;;
37903;SDS011;23738;50.422;18.758;2023-05-19T06:40:37;9.40;;;5.40;;
37903;SDS011;23738;50.422;18.758;2023-05-19T06:43:04;9.00;;;5.30;;
37903;SDS011;23738;50.422;18.758;2023-05-19T06:45:31;6.60;;;4.50;;
37903;SDS011;23738;50.422;18.758;2023-05-19T06:47:58;10.40;;;4.30;;
37903;SDS011;23738;50.422;18.758;2023-05-19T06:50:25;7.90;;;4.50;;
37903;SDS011;23738;50.422;18.758;2023-05-19T06:52:53;8.70;;;5.00;;
37903;SDS011;23738;50.422;18.758;2023-05-19T06:55:22;8.40;;;5.60;;
37903;SDS011;23738;50.422;18.758;2023-05-19T06:57:49;8.90;;;6.10;;
37903;SDS011;23738;50.422;18.758;2023-05-19T07:00:16;8.80;;;6.30;;
37903;SDS011;23738;50.422;18.758;2023-05-19T07:02:44;7.80;;;6.40;;
37903;SDS011;23738;50.422;18.758;2023-05-19T07:05:11;14.70;;;6.40;;
37903;SDS011;23738;50.422;18.758;2023-05-19T07:07:38;10.40;;;7.40;;
37903;SDS011;23738;50.422;18.758;2023-05-19T07:10:07;12.70;;;9.60;;
37903;SDS011;23738;50.422;18.758;2023-05-19T07:12:35;15.40;;;9.70;;
37903;SDS011;23738;50.422;18.758;2023-05-19T07:15:02;12.10;;;7.40;;
37903;SDS011;23738;50.422;18.758;2023-05-19T07:17:30;10.90;;;7.70;;
37903;SDS011;23738;50.422;18.758;2023-05-19T07:19:57;10.40;;;8.10;;
37903;SDS011;23738;50.422;18.758;2023-05-19T07:22:26;11.50;;;8.90;;
37903;SDS011;23738;50.422;18.758;2023-05-19T07:24:53;13.40;;;11.20;;
37903;SDS011;23738;50.422;18.758;2023-05-19T07:27:21;11.40;;;10.20;;
37903;SDS011;23738;50.422;18.758;2023-05-19T07:29:48;12.80;;;9.20;;
37903;SDS011;23738;50.422;18.758;2023-05-19T07:32:16;10.60;;;8.40;;
37903;SDS011;23738;50.422;18.758;2023-05-19T07:34:44;8.30;;;6.50;;
37903;SDS011;23738;50.422;18.758;2023-05-19T07:37:14;10.60;;;6.50;;
37903;SDS011;23738;50.422;18.758;2023-05-19T07:39:42;8.20;;;7.20;;
37903;SDS011;23738;50.422;18.758;2023-05-19T07:42:09;11.70;;;7.70;;
37903;SDS011;23738;50.422;18.758;2023-05-19T07:44:37;9.00;;;6.20;;
37903;SDS011;23738;50.422;18.758;2023-05-19T07:47:05;5.70;;;4.70;;
37903;SDS011;23738;50.422;18.758;2023-05-19T07:49:33;6.60;;;4.20;;
37903;SDS011;23738;50.422;18.758;2023-05-19T07:52:01;6.80;;;4.80;;
37903;SDS011;23738;50.422;18.758;2023-05-19T07:54:29;8.70;;;4.90;;
37903;SDS011;23738;50.422;18.758;2023-05-19T07:56:57;7.20;;;4.70;;
37903;SDS011;23738;50.422;18.758;2023-05-19T07:59:25;6.30;;;5.30;;
37903;SDS011;23738;50.422;18.758;2023-05-19T08:01:52;6.90;;;4.30;;
37903;SDS011;23738;50.422;18.758;2023-05-19T08:04:20;6.50;;;4.10;;
37903;SDS011;23738;50.422;18.758;2023-05-19T08:06:47;7.80;;;5.50;;
37903;SDS011;23738;50.422;18.758;2023-05-19T08:09:14;7.50;;;5.10;;
37903;SDS011;23738;50.422;18.758;2023-05-19T08:11:41;7.90;;;5.50;;
37903;SDS011;23738;50.422;18.758;2023-05-19T08:14:09;7.50;;;5.20;;
37903;SDS011;23738;50.422;18.758;2023-05-19T08:16:36;4.60;;;4.20;;
37903;SDS011;23738;50.422;18.758;2023-05-19T08:19:03;4.10;;;3.60;;
37903;SDS011;23738;50.422;18.758;2023-05-19T08:21:32;4.80;;;3.90;;
37903;SDS011;23738;50.422;18.758;2023-05-19T08:23:59;5.60;;;4.10;;
37903;SDS011;23738;50.422;18.758;2023-05-19T08:26:26;5.90;;;5.10;;
37903;SDS011;23738;50.422;18.758;2023-05-19T08:28:54;5.40;;;4.90;;
37903;SDS011;23738;50.422;18.758;2023-05-19T08:31:21;5.20;;;4.70;;
37903;SDS011;23738;50.422;18.758;2023-05-19T08:33:49;4.30;;;3.90;;
37903;SDS011;23738;50.422;18.758;2023-05-19T08:36:16;6.20;;;4.40;;
37903;SDS011;23738;50.422;18.758;2023-05-19T08:38:44;3.90;;;3.40;;
37903;SDS011;23738;50.422;18.758;2023-05-19T08:41:11;6.00;;;4.60;;
37903;SDS011;23738;50.422;18.758;2023-05-19T08:43:38;7.50;;;5.70;;
37903;SDS011;23738;50.422;18.758;2023-05-19T08:46:06;6.30;;;5.50;;
37903;SDS011;23738;50.422;18.758;2023-05-19T08:48:36;5.80;;;4.70;;
37903;SDS011;23738;50.422;18.758;2023-05-19T08:51:08;5.30;;;4.70;;
37903;SDS011;23738;50.422;18.758;2023-05-19T08:53:44;4.60;;;4.10;;
37903;SDS011;23738;50.422;18.758;2023-05-19T08:56:16;6.30;;;3.90;;
37903;SDS011;23738;50.422;18.758;2023-05-19T08:58:47;6.20;;;4.30;;
37903;SDS011;23738;50.422;18.758;2023-05-19T09:01:15;6.80;;;4.50;;
37903;SDS011;23738;50.422;18.758;2023-05-19T09:03:44;5.00;;;4.50;;
37903;SDS011;23738;50.422;18.758;2023-05-19T09:06:14;5.70;;;5.00;;
37903;SDS011;23738;50.422;18.758;2023-05-19T09:08:41;5.60;;;5.10;;
37903;SDS011;23738;50.422;18.758;2023-05-19T09:11:09;6.40;;;3.70;;
37903;SDS011;23738;50.422;18.758;2023-05-19T09:13:37;4.50;;;3.80;;
37903;SDS011;23738;50.422;18.758;2023-05-19T09:16:04;6.50;;;5.10;;
37903;SDS011;23738;50.422;18.758;2023-05-19T09:18:32;6.50;;;4.20;;
37903;SDS011;23738;50.422;18.758;2023-05-19T09:21:00;6.10;;;5.10;;
37903;SDS011;23738;50.422;18.758;2023-05-19T09:23:28;6.50;;;5.40;;
37903;SDS011;23738;50.422;18.758;2023-05-19T09:25:56;6.10;;;5.60;;
37903;SDS011;23738;50.422;18.758;2023-05-19T09:28:27;6.50;;;5.80;;
37903;SDS011;23738;50.422;18.758;2023-05-19T09:31:00;7.90;;;5.90;;
37903;SDS011;23738;50.422;18.758;2023-05-19T09:33:28;4.90;;;4.40;;
37903;SDS011;23738;50.422;18.758;2023-05-19T09:35:57;7.10;;;6.40;;
37903;SDS011;23738;50.422;18.758;2023-05-19T09:38:25;10.20;;;6.30;;
37903;SDS011;23738;50.422;18.758;2023-05-19T09:40:54;8.60;;;6.00;;
37903;SDS011;23738;50.422;18.758;2023-05-19T09:43:22;6.80;;;5.90;;
37903;SDS011;23738;50.422;18.758;2023-05-19T09:45:54;6.10;;;5.50;;
37903;SDS011;23738;50.422;18.758;2023-05-19T09:48:25;6.20;;;5.50;;
37903;SDS011;23738;50.422;18.758;2023-05-19T09:50:53;4.90;;;4.50;;
37903;SDS011;23738;50.422;18.758;2023-05-19T09:53:21;5.00;;;4.50;;
37903;SDS011;23738;50.422;18.758;2023-05-19T09:55:50;6.30;;;5.50;;
37903;SDS011;23738;50.422;18.758;2023-05-19T09:58:22;6.00;;;5.50;;
37903;SDS011;23738;50.422;18.758;2023-05-19T10:00:51;6.20;;;5.60;;
37903;SDS011;23738;50.422;18.758;2023-05-19T10:03:19;8.70;;;6.40;;
37903;SDS011;23738;50.422;18.758;2023-05-19T10:05:49;6.90;;;6.00;;
37903;SDS011;23738;50.422;18.758;2023-05-19T10:08:18;7.40;;;6.60;;
37903;SDS011;23738;50.422;18.758;2023-05-19T10:10:46;6.80;;;5.00;;
37903;SDS011;23738;50.422;18.758;2023-05-19T10:13:13;7.10;;;5.90;;
37903;SDS011;23738;50.422;18.758;2023-05-19T10:15:42;12.00;;;6.00;;
37903;SDS011;23738;50.422;18.758;2023-05-19T10:18:12;6.40;;;5.80;;
37903;SDS011;23738;50.422;18.758;2023-05-19T10:20:41;5.50;;;5.00;;
37903;SDS011;23738;50.422;18.758;2023-05-19T10:23:08;6.80;;;5.70;;
37903;SDS011;23738;50.422;18.758;2023-05-19T10:25:36;6.90;;;6.30;;
37903;SDS011;23738;50.422;18.758;2023-05-19T10:28:06;10.30;;;6.10;;
37903;SDS011;23738;50.422;18.758;2023-05-19T10:30:37;7.20;;;6.30;;
37903;SDS011;23738;50.422;18.758;2023-05-19T10:33:13;6.40;;;5.70;;
37903;SDS011;23738;50.422;18.758;2023-05-19T10:38:41;8.70;;;6.70;;
37903;SDS011;23738;50.422;18.758;2023-05-19T10:41:17;8.80;;;6.90;;
37903;SDS011;23738;50.422;18.758;2023-05-19T10:43:53;8.20;;;6.50;;
37903;SDS011;23738;50.422;18.758;2023-05-19T10:46:28;7.50;;;6.70;;
37903;SDS011;23738;50.422;18.758;2023-05-19T10:48:56;7.50;;;6.70;;
37903;SDS011;23738;50.422;18.758;2023-05-19T10:51:27;7.60;;;6.80;;
37903;SDS011;23738;50.422;18.758;2023-05-19T10:53:56;7.60;;;6.20;;
37903;SDS011;23738;50.422;18.758;2023-05-19T10:56:27;7.00;;;5.80;;
37903;SDS011;23738;50.422;18.758;2023-05-19T10:58:57;6.10;;;5.30;;
37903;SDS011;23738;50.422;18.758;2023-05-19T11:01:29;6.90;;;6.30;;
37903;SDS011;23738;50.422;18.758;2023-05-19T11:04:02;7.70;;;6.60;;
37903;SDS011;23738;50.422;18.758;2023-05-19T11:06:32;6.50;;;5.90;;
37903;SDS011;23738;50.422;18.758;2023-05-19T11:09:03;8.70;;;6.80;;
37903;SDS011;23738;50.422;18.758;2023-05-19T11:11:47;8.00;;;6.80;;
37903;SDS011;23738;50.422;18.758;2023-05-19T11:14:16;8.30;;;7.20;;
37903;SDS011;23738;50.422;18.758;2023-05-19T11:16:46;7.40;;;6.70;;
37903;SDS011;23738;50.422;18.758;2023-05-19T11:19:17;7.20;;;6.50;;
37903;SDS011;23738;50.422;18.758;2023-05-19T11:21:50;7.50;;;6.10;;
37903;SDS011;23738;50.422;18.758;2023-05-19T11:24:35;8.20;;;7.40;;
37903;SDS011;23738;50.422;18.758;2023-05-19T11:27:21;7.90;;;7.20;;
37903;SDS011;23738;50.422;18.758;2023-05-19T11:29:51;9.30;;;7.10;;
37903;SDS011;23738;50.422;18.758;2023-05-19T11:32:20;9.10;;;7.70;;
37903;SDS011;23738;50.422;18.758;2023-05-19T11:34:48;11.20;;;7.50;;
37903;SDS011;23738;50.422;18.758;2023-05-19T11:37:16;9.00;;;8.20;;
37903;SDS011;23738;50.422;18.758;2023-05-19T11:39:44;9.30;;;8.40;;
37903;SDS011;23738;50.422;18.758;2023-05-19T11:42:12;7.90;;;6.90;;
37903;SDS011;23738;50.422;18.758;2023-05-19T11:44:39;9.20;;;7.10;;
37903;SDS011;23738;50.422;18.758;2023-05-19T11:47:07;13.90;;;8.70;;
37903;SDS011;23738;50.422;18.758;2023-05-19T11:49:35;9.20;;;8.30;;
37903;SDS011;23738;50.422;18.758;2023-05-19T11:52:02;9.80;;;9.00;;
37903;SDS011;23738;50.422;18.758;2023-05-19T11:54:30;10.60;;;9.30;;
37903;SDS011;23738;50.422;18.758;2023-05-19T11:57:01;9.60;;;8.80;;
37903;SDS011;23738;50.422;18.758;2023-05-19T11:59:29;9.80;;;8.70;;
37903;SDS011;23738;50.422;18.758;2023-05-19T12:01:57;8.00;;;7.20;;
37903;SDS011;23738;50.422;18.758;2023-05-19T12:04:28;9.00;;;6.90;;
37903;SDS011;23738;50.422;18.758;2023-05-19T12:06:56;8.20;;;7.40;;
37903;SDS011;23738;50.422;18.758;2023-05-19T12:09:24;8.10;;;7.10;;
37903;SDS011;23738;50.422;18.758;2023-05-19T12:11:54;8.60;;;7.00;;
37903;SDS011;23738;50.422;18.758;2023-05-19T12:14:21;7.40;;;6.70;;
37903;SDS011;23738;50.422;18.758;2023-05-19T12:16:51;7.20;;;6.60;;
37903;SDS011;23738;50.422;18.758;2023-05-19T12:19:18;7.80;;;7.00;;
37903;SDS011;23738;50.422;18.758;2023-05-19T12:21:49;7.10;;;6.50;;
37903;SDS011;23738;50.422;18.758;2023-05-19T12:24:17;8.20;;;7.40;;
37903;SDS011;23738;50.422;18.758;2023-05-19T12:26:44;7.90;;;7.20;;
37903;SDS011;23738;50.422;18.758;2023-05-19T12:29:14;8.70;;;7.50;;
37903;SDS011;23738;50.422;18.758;2023-05-19T12:31:42;8.10;;;7.20;;
37903;SDS011;23738;50.422;18.758;2023-05-19T12:34:12;9.30;;;6.70;;
37903;SDS011;23738;50.422;18.758;2023-05-19T12:36:40;8.50;;;7.70;;
37903;SDS011;23738;50.422;18.758;2023-05-19T12:39:07;9.20;;;8.40;;
37903;SDS011;23738;50.422;18.758;2023-05-19T12:41:36;7.20;;;6.20;;
37903;SDS011;23738;50.422;18.758;2023-05-19T12:44:12;8.30;;;7.50;;
37903;SDS011;23738;50.422;18.758;2023-05-19T12:46:41;10.70;;;9.00;;
37903;SDS011;23738;50.422;18.758;2023-05-19T12:49:09;8.70;;;7.90;;
37903;SDS011;23738;50.422;18.758;2023-05-19T12:51:37;9.20;;;8.30;;
37903;SDS011;23738;50.422;18.758;2023-05-19T12:54:05;9.10;;;8.20;;
37903;SDS011;23738;50.422;18.758;2023-05-19T12:56:32;8.60;;;7.80;;
37903;SDS011;23738;50.422;18.758;2023-05-19T12:58:59;8.40;;;7.60;;
37903;SDS011;23738;50.422;18.758;2023-05-19T13:01:28;9.80;;;7.20;;
37903;SDS011;23738;50.422;18.758;2023-05-19T13:03:56;7.40;;;6.40;;
37903;SDS011;23738;50.422;18.758;2023-05-19T13:06:23;6.60;;;5.90;;
37903;SDS011;23738;50.422;18.758;2023-05-19T13:08:50;11.80;;;10.70;;
37903;SDS011;23738;50.422;18.758;2023-05-19T13:11:17;9.10;;;7.80;;
37903;SDS011;23738;50.422;18.758;2023-05-19T13:13:44;9.30;;;8.50;;
37903;SDS011;23738;50.422;18.758;2023-05-19T13:16:12;10.00;;;8.90;;
37903;SDS011;23738;50.422;18.758;2023-05-19T13:18:39;9.40;;;8.50;;
37903;SDS011;23738;50.422;18.758;2023-05-19T13:21:06;9.60;;;8.80;;
37903;SDS011;23738;50.422;18.758;2023-05-19T13:23:34;17.00;;;15.30;;
37903;SDS011;23738;50.422;18.758;2023-05-19T13:26:02;9.50;;;8.60;;
37903;SDS011;23738;50.422;18.758;2023-05-19T13:28:30;11.10;;;8.20;;
37903;SDS011;23738;50.422;18.758;2023-05-19T13:30:57;9.70;;;8.00;;
37903;SDS011;23738;50.422;18.758;2023-05-19T13:33:24;9.10;;;8.10;;
37903;SDS011;23738;50.422;18.758;2023-05-19T13:35:51;9.70;;;7.70;;
37903;SDS011;23738;50.422;18.758;2023-05-19T13:38:18;12.00;;;9.30;;
37903;SDS011;23738;50.422;18.758;2023-05-19T13:40:45;11.50;;;8.50;;
37903;SDS011;23738;50.422;18.758;2023-05-19T13:43:13;12.50;;;11.40;;
37903;SDS011;23738;50.422;18.758;2023-05-19T13:45:41;8.90;;;7.10;;
37903;SDS011;23738;50.422;18.758;2023-05-19T13:48:09;7.90;;;7.20;;
37903;SDS011;23738;50.422;18.758;2023-05-19T13:50:36;9.50;;;8.60;;
37903;SDS011;23738;50.422;18.758;2023-05-19T13:53:03;9.70;;;8.80;;
37903;SDS011;23738;50.422;18.758;2023-05-19T13:55:31;7.80;;;7.00;;
37903;SDS011;23738;50.422;18.758;2023-05-19T13:57:58;8.00;;;7.00;;
37903;SDS011;23738;50.422;18.758;2023-05-19T14:00:25;7.40;;;6.70;;
37903;SDS011;23738;50.422;18.758;2023-05-19T14:02:53;7.90;;;7.00;;
37903;SDS011;23738;50.422;18.758;2023-05-19T14:05:20;7.80;;;6.80;;
37903;SDS011;23738;50.422;18.758;2023-05-19T14:07:47;6.40;;;5.80;;
37903;SDS011;23738;50.422;18.758;2023-05-19T14:10:14;9.10;;;6.20;;
37903;SDS011;23738;50.422;18.758;2023-05-19T14:12:42;6.70;;;5.90;;
37903;SDS011;23738;50.422;18.758;2023-05-19T14:15:10;6.90;;;5.50;;
37903;SDS011;23738;50.422;18.758;2023-05-19T14:17:37;6.00;;;5.40;;
37903;SDS011;23738;50.422;18.758;2023-05-19T14:20:06;8.60;;;5.20;;
37903;SDS011;23738;50.422;18.758;2023-05-19T14:22:34;6.30;;;5.10;;
37903;SDS011;23738;50.422;18.758;2023-05-19T14:25:01;8.80;;;6.20;;
37903;SDS011;23738;50.422;18.758;2023-05-19T14:27:28;10.80;;;6.60;;
37903;SDS011;23738;50.422;18.758;2023-05-19T14:29:56;7.50;;;6.70;;
37903;SDS011;23738;50.422;18.758;2023-05-19T14:32:23;6.40;;;5.80;;
37903;SDS011;23738;50.422;18.758;2023-05-19T14:34:50;12.20;;;9.40;;
37903;SDS011;23738;50.422;18.758;2023-05-19T14:37:17;10.00;;;9.10;;
37903;SDS011;23738;50.422;18.758;2023-05-19T14:39:45;65.90;;;32.90;;
37903;SDS011;23738;50.422;18.758;2023-05-19T14:42:12;24.60;;;14.10;;
37903;SDS011;23738;50.422;18.758;2023-05-19T14:44:39;10.50;;;8.40;;
37903;SDS011;23738;50.422;18.758;2023-05-19T14:47:06;9.20;;;6.50;;
37903;SDS011;23738;50.422;18.758;2023-05-19T14:49:35;7.10;;;6.30;;
37903;SDS011;23738;50.422;18.758;2023-05-19T14:52:03;13.60;;;7.90;;
37903;SDS011;23738;50.422;18.758;2023-05-19T14:54:30;13.30;;;10.20;;
37903;SDS011;23738;50.422;18.758;2023-05-19T14:56:58;12.40;;;11.30;;
37903;SDS011;23738;50.422;18.758;2023-05-19T14:59:26;11.70;;;9.70;;
37903;SDS011;23738;50.422;18.758;2023-05-19T15:01:54;10.20;;;7.40;;
37903;SDS011;23738;50.422;18.758;2023-05-19T15:04:21;9.70;;;7.60;;
37903;SDS011;23738;50.422;18.758;2023-05-19T15:06:48;6.80;;;6.10;;
37903;SDS011;23738;50.422;18.758;2023-05-19T15:09:16;6.60;;;5.90;;
37903;SDS011;23738;50.422;18.758;2023-05-19T15:11:43;7.10;;;6.10;;